Time;durP1;ratioP1;P1;durP2;ratioP2;P2;SDS_P1;SDS_P2;PMS_P1;PMS_P2;Temp;Humidity;BMP_temperature;BMP_pressure;BME280_temperature;BME280_humidity;BME280_pressure;Samples;Min_cycle;Max_cycle;Signal;HPM_P1;HPM_P2
2023/07/29 00:00:42;;;;;;;14.30;11.02;;;17.60;99.90;;;;;;5033588;28;20053;-28
2023/07/29 00:03:09;;;;;;;14.95;11.00;;;17.60;99.90;;;;;;5016053;28;20084;-28
2023/07/29 00:05:36;;;;;;;15.23;10.52;;;17.70;99.90;;;;;;5032572;28;20057;-28
2023/07/29 00:08:02;;;;;;;12.88;9.15;;;17.70;99.90;;;;;;5032361;28;20080;-28
2023/07/29 00:10:28;;;;;;;13.38;9.70;;;17.70;99.90;;;;;;5033810;28;20503;-28
2023/07/29 00:12:54;;;;;;;12.05;9.73;;;17.70;99.90;;;;;;5037454;28;20046;-28
2023/07/29 00:15:19;;;;;;;12.38;9.05;;;17.70;99.90;;;;;;5037295;28;20075;-28
2023/07/29 00:17:45;;;;;;;13.60;9.52;;;17.70;99.90;;;;;;5037387;28;20051;-28
2023/07/29 00:20:11;;;;;;;16.13;9.95;;;17.80;99.90;;;;;;5036144;28;20037;-28
2023/07/29 00:22:37;;;;;;;12.68;9.68;;;17.80;99.90;;;;;;5037318;28;20045;-28
2023/07/29 00:25:02;;;;;;;12.95;9.77;;;17.70;99.90;;;;;;5036289;28;20080;-28
2023/07/29 00:27:28;;;;;;;17.10;11.07;;;17.70;99.90;;;;;;5037999;28;20049;-28
2023/07/29 00:29:54;;;;;;;13.82;10.75;;;17.70;99.90;;;;;;5036780;28;20403;-28
2023/07/29 00:32:19;;;;;;;15.20;11.68;;;17.70;99.90;;;;;;5037373;28;20076;-28
2023/07/29 00:34:45;;;;;;;14.93;11.18;;;17.70;99.90;;;;;;5037621;28;20447;-29
2023/07/29 00:37:12;;;;;;;13.27;10.95;;;17.70;99.90;;;;;;5035710;28;20041;-28
2023/07/29 00:39:37;;;;;;;19.08;11.55;;;17.70;99.90;;;;;;5036925;28;20053;-28
2023/07/29 00:42:04;;;;;;;16.27;12.13;;;17.70;99.90;;;;;;5037464;28;20518;-28
2023/07/29 00:44:33;;;;;;;16.92;11.75;;;17.60;99.90;;;;;;5035896;28;20049;-28
2023/07/29 00:47:02;;;;;;;13.90;12.07;;;17.60;99.90;;;;;;5036909;28;20089;-28
2023/07/29 00:49:28;;;;;;;18.55;12.80;;;17.60;99.90;;;;;;5037566;28;20132;-28
2023/07/29 00:51:54;;;;;;;19.58;13.02;;;17.60;99.90;;;;;;5036699;28;20487;-28
2023/07/29 00:54:20;;;;;;;18.77;13.80;;;17.60;99.90;;;;;;5037467;28;20052;-29
2023/07/29 00:56:46;;;;;;;15.48;11.75;;;17.60;99.90;;;;;;5036233;28;20044;-28
2023/07/29 00:59:12;;;;;;;17.50;12.93;;;17.50;99.90;;;;;;5036551;28;20132;-28
2023/07/29 01:01:38;;;;;;;16.27;12.20;;;17.50;99.90;;;;;;5035575;28;20056;-29
2023/07/29 01:04:04;;;;;;;14.75;12.25;;;17.60;99.90;;;;;;5037286;28;20050;-28
2023/07/29 01:06:48;;;;;;;17.17;12.95;;;17.50;99.90;;;;;;5036488;28;20049;-28
2023/07/29 01:09:23;;;;;;;16.02;13.15;;;17.50;99.90;;;;;;5036702;28;20187;-28
2023/07/29 01:12:22;;;;;;;18.90;13.20;;;17.50;99.90;;;;;;5037019;28;20132;-28
2023/07/29 01:15:08;;;;;;;16.63;13.23;;;17.50;99.90;;;;;;5036085;28;20495;-28
2023/07/29 01:17:40;;;;;;;18.42;12.70;;;17.50;99.90;;;;;;5035360;28;20491;-28
2023/07/29 01:20:07;;;;;;;17.63;13.30;;;17.40;99.90;;;;;;5036593;28;20045;-28
2023/07/29 01:22:37;;;;;;;17.92;12.93;;;17.40;99.90;;;;;;5034822;28;20052;-28
2023/07/29 01:25:04;;;;;;;20.73;13.75;;;17.40;99.90;;;;;;5035807;28;20506;-29
2023/07/29 01:27:30;;;;;;;19.25;13.60;;;17.30;99.90;;;;;;5036637;28;20053;-27
2023/07/29 01:29:57;;;;;;;17.02;12.30;;;17.20;99.90;;;;;;5034717;28;20056;-28
2023/07/29 01:32:25;;;;;;;18.73;13.45;;;17.20;99.90;;;;;;5036001;28;20045;-28
2023/07/29 01:35:02;;;;;;;18.73;13.65;;;17.20;99.90;;;;;;5035921;28;20049;-28
2023/07/29 01:37:32;;;;;;;16.63;13.32;;;17.10;99.90;;;;;;5035290;28;20046;-27
2023/07/29 01:40:00;;;;;;;17.50;13.70;;;17.00;99.90;;;;;;5035874;28;20103;-28
2023/07/29 01:42:26;;;;;;;21.38;14.18;;;16.90;99.90;;;;;;5035769;28;20483;-28
2023/07/29 01:44:52;;;;;;;23.08;15.65;;;16.80;99.90;;;;;;5034945;28;20625;-28
2023/07/29 01:47:18;;;;;;;20.08;14.18;;;16.80;99.90;;;;;;5035720;28;20052;-27
2023/07/29 01:49:44;;;;;;;20.13;14.40;;;16.70;99.90;;;;;;5036503;28;20052;-28
2023/07/29 01:52:10;;;;;;;21.00;15.65;;;16.70;99.90;;;;;;5035621;28;20081;-28
2023/07/29 01:54:35;;;;;;;23.48;15.45;;;16.60;99.90;;;;;;5036411;28;20045;-28
2023/07/29 01:57:01;;;;;;;19.00;14.02;;;16.60;99.90;;;;;;5034374;28;20446;-27
2023/07/29 01:59:27;;;;;;;23.15;16.45;;;16.50;99.90;;;;;;5034866;28;20050;-27
2023/07/29 02:01:52;;;;;;;19.40;15.48;;;16.50;99.90;;;;;;5036251;28;20049;-28
2023/07/29 02:04:18;;;;;;;23.67;16.98;;;16.50;99.90;;;;;;5034460;28;20057;-27
2023/07/29 02:06:44;;;;;;;23.33;16.92;;;16.50;99.90;;;;;;5035363;28;20041;-27
2023/07/29 02:09:09;;;;;;;21.08;15.98;;;16.40;99.90;;;;;;5035326;28;20084;-28
2023/07/29 02:11:35;;;;;;;22.52;16.33;;;16.40;99.90;;;;;;5034291;28;20120;-27
2023/07/29 02:14:01;;;;;;;22.60;15.32;;;16.40;99.90;;;;;;5035198;28;20046;-27
2023/07/29 02:16:26;;;;;;;21.33;15.27;;;16.40;99.90;;;;;;5033974;28;20049;-27
2023/07/29 02:18:52;;;;;;;19.83;15.75;;;16.30;99.90;;;;;;5017721;28;20052;-27
2023/07/29 02:21:18;;;;;;;22.15;15.50;;;16.40;99.90;;;;;;5035023;28;20088;-27
2023/07/29 02:23:44;;;;;;;23.30;15.70;;;16.40;99.90;;;;;;5035326;28;20060;-27
2023/07/29 02:26:10;;;;;;;21.95;15.43;;;16.40;99.90;;;;;;5034645;28;20372;-27
2023/07/29 02:28:36;;;;;;;22.42;15.43;;;16.40;99.90;;;;;;5033555;28;20053;-27
2023/07/29 02:31:22;;;;;;;21.55;15.35;;;16.40;99.90;;;;;;5034893;28;20128;-27
2023/07/29 02:33:48;;;;;;;19.55;14.73;;;16.40;99.90;;;;;;5034119;28;20049;-27
2023/07/29 02:36:14;;;;;;;21.58;15.05;;;16.40;99.90;;;;;;5034380;28;20052;-28
2023/07/29 02:38:40;;;;;;;21.05;15.13;;;16.40;99.90;;;;;;5034744;28;20049;-27
2023/07/29 02:41:06;;;;;;;20.92;15.27;;;16.40;99.90;;;;;;5033725;28;20049;-28
2023/07/29 02:43:32;;;;;;;21.20;15.23;;;16.40;99.90;;;;;;5035423;28;20128;-28
2023/07/29 02:45:57;;;;;;;19.92;14.55;;;16.30;99.90;;;;;;5032929;28;20384;-27
2023/07/29 02:48:25;;;;;;;21.35;14.80;;;16.30;99.90;;;;;;5034807;28;20053;-27
2023/07/29 02:50:51;;;;;;;24.55;15.82;;;16.30;99.90;;;;;;5034482;28;20045;-27
2023/07/29 02:53:17;;;;;;;23.65;14.88;;;16.30;99.90;;;;;;5034440;28;20148;-27
2023/07/29 02:55:43;;;;;;;20.50;14.75;;;16.20;99.90;;;;;;5034659;28;20490;-27
2023/07/29 02:58:09;;;;;;;22.20;13.90;;;16.30;99.90;;;;;;5033782;28;20096;-27
2023/07/29 03:00:35;;;;;;;19.02;13.30;;;16.20;99.90;;;;;;5034395;28;20045;-27
2023/07/29 03:03:01;;;;;;;21.85;14.07;;;16.20;99.90;;;;;;5034328;28;20053;-27
2023/07/29 03:05:30;;;;;;;23.27;14.80;;;16.10;99.90;;;;;;5033290;28;20052;-27
2023/07/29 03:07:55;;;;;;;20.85;14.20;;;16.10;99.90;;;;;;5032982;28;20461;-28
2023/07/29 03:10:22;;;;;;;20.65;14.55;;;16.00;99.90;;;;;;5034120;28;20136;-28
2023/07/29 03:12:47;;;;;;;23.52;14.27;;;16.00;99.90;;;;;;5032887;28;20053;-27
2023/07/29 03:15:13;;;;;;;21.10;14.77;;;15.90;99.90;;;;;;5016910;28;20471;-27
2023/07/29 03:17:39;;;;;;;22.25;14.45;;;15.80;99.90;;;;;;5034586;28;20096;-27
2023/07/29 03:20:05;;;;;;;23.77;13.43;;;15.80;99.90;;;;;;5034021;28;20049;-27
2023/07/29 03:22:31;;;;;;;21.27;14.68;;;15.70;99.90;;;;;;5033935;28;20069;-29
2023/07/29 03:24:57;;;;;;;28.98;14.93;;;15.60;99.90;;;;;;5032748;28;20495;-28
2023/07/29 03:27:23;;;;;;;23.48;14.18;;;15.60;99.90;;;;;;5033921;28;20045;-28
2023/07/29 03:29:48;;;;;;;24.33;15.50;;;15.50;99.90;;;;;;5033944;28;20049;-27
2023/07/29 03:32:14;;;;;;;22.23;14.10;;;15.40;99.90;;;;;;5032914;28;20052;-28
2023/07/29 03:34:40;;;;;;;23.08;14.13;;;15.40;99.90;;;;;;5034657;28;20049;-28
2023/07/29 03:37:06;;;;;;;25.77;14.85;;;15.30;99.90;;;;;;5033775;28;20045;-27
2023/07/29 03:39:32;;;;;;;24.13;15.50;;;15.20;99.90;;;;;;5034036;28;20456;-27
2023/07/29 03:41:58;;;;;;;22.58;14.23;;;15.20;99.90;;;;;;5033434;28;20411;-28
2023/07/29 03:44:24;;;;;;;24.88;14.05;;;15.20;99.90;;;;;;5032575;28;20426;-28
2023/07/29 03:46:49;;;;;;;25.90;14.82;;;15.20;99.90;;;;;;5034597;28;20107;-28
2023/07/29 03:49:15;;;;;;;23.90;14.07;;;15.10;99.90;;;;;;5033667;28;20055;-28
2023/07/29 03:51:41;;;;;;;24.77;15.20;;;15.00;99.90;;;;;;4999951;28;20049;-27
2023/07/29 03:54:06;;;;;;;24.65;13.20;;;15.00;99.90;;;;;;5033897;28;20049;-28
2023/07/29 03:56:32;;;;;;;27.75;15.00;;;15.00;99.90;;;;;;5033481;28;20471;-27
2023/07/29 03:59:07;;;;;;;23.75;14.13;;;15.00;99.90;;;;;;5032467;28;20045;-27
2023/07/29 04:01:33;;;;;;;22.80;13.88;;;15.00;99.90;;;;;;5033277;28;20184;-28
2023/07/29 04:03:59;;;;;;;24.13;14.07;;;15.00;99.90;;;;;;5033519;28;20140;-27
2023/07/29 04:06:25;;;;;;;25.67;14.38;;;15.00;99.90;;;;;;5032334;28;20104;-27
2023/07/29 04:08:51;;;;;;;25.60;13.65;;;15.00;99.90;;;;;;5032498;28;20046;-27
2023/07/29 04:11:16;;;;;;;25.20;15.10;;;15.00;99.90;;;;;;5034039;28;20084;-27
2023/07/29 04:13:42;;;;;;;26.95;15.52;;;15.00;99.90;;;;;;5032227;28;20037;-27
2023/07/29 04:16:08;;;;;;;27.48;14.63;;;15.00;99.90;;;;;;5016628;28;20383;-28
2023/07/29 04:18:33;;;;;;;26.92;14.60;;;15.10;99.90;;;;;;5032208;28;20049;-27
2023/07/29 04:20:59;;;;;;;27.27;14.32;;;15.10;99.90;;;;;;5015689;28;20499;-28
2023/07/29 04:23:25;;;;;;;22.73;14.00;;;15.20;99.90;;;;;;5033398;28;20111;-28
2023/07/29 04:25:51;;;;;;;22.83;13.98;;;15.30;99.90;;;;;;5032208;28;20133;-28
2023/07/29 04:28:17;;;;;;;26.63;13.32;;;15.30;99.90;;;;;;5033219;28;20106;-27
2023/07/29 04:30:43;;;;;;;22.52;13.10;;;15.40;99.90;;;;;;5032345;28;20045;-28
2023/07/29 04:33:08;;;;;;;28.35;13.80;;;15.40;99.90;;;;;;5033516;28;20049;-27
2023/07/29 04:35:34;;;;;;;24.25;13.20;;;15.50;99.90;;;;;;5033424;28;20387;-28
2023/07/29 04:38:00;;;;;;;25.42;13.43;;;15.50;99.90;;;;;;5033797;28;20406;-28
2023/07/29 04:40:25;;;;;;;21.92;12.73;;;15.50;99.90;;;;;;5032030;28;20045;-28
2023/07/29 04:42:51;;;;;;;21.45;12.18;;;15.50;99.90;;;;;;5016606;28;20411;-27
2023/07/29 04:45:17;;;;;;;20.75;12.25;;;15.60;99.90;;;;;;5032839;28;20049;-28
2023/07/29 04:47:43;;;;;;;19.52;12.25;;;15.60;99.90;;;;;;5033161;28;20050;-27
2023/07/29 04:50:09;;;;;;;20.02;11.63;;;15.80;99.90;;;;;;5033118;28;20049;-27
2023/07/29 04:52:35;;;;;;;18.80;10.77;;;15.80;99.90;;;;;;5033094;28;20137;-27
2023/07/29 04:55:00;;;;;;;17.92;10.60;;;15.90;99.90;;;;;;5033226;28;20085;-27
2023/07/29 04:57:26;;;;;;;19.58;10.52;;;15.90;99.90;;;;;;5033543;28;20391;-27
2023/07/29 04:59:52;;;;;;;17.83;10.48;;;16.00;99.90;;;;;;5036882;28;20095;-28
2023/07/29 05:02:17;;;;;;;16.45;10.63;;;16.00;99.90;;;;;;5037079;28;20567;-28
2023/07/29 05:04:43;;;;;;;21.33;9.73;;;16.10;99.90;;;;;;5035338;28;20056;-27
2023/07/29 05:07:09;;;;;;;15.48;9.07;;;16.10;99.90;;;;;;5036510;28;20053;-27
2023/07/29 05:09:34;;;;;;;15.90;8.98;;;16.10;99.90;;;;;;5036963;28;20049;-28
2023/07/29 05:12:00;;;;;;;14.18;8.40;;;16.20;99.90;;;;;;5036389;28;20088;-28
2023/07/29 05:14:26;;;;;;;14.05;7.63;;;16.20;99.90;;;;;;5035407;28;20049;-27
2023/07/29 05:16:52;;;;;;;14.77;7.60;;;16.30;99.90;;;;;;5035895;28;20103;-27
2023/07/29 05:19:17;;;;;;;10.88;7.55;;;16.30;99.90;;;;;;5036347;28;20045;-28
2023/07/29 05:21:43;;;;;;;12.02;8.10;;;16.40;99.90;;;;;;5035910;28;20045;-27
2023/07/29 05:24:09;;;;;;;10.32;7.15;;;16.40;99.90;;;;;;5034929;28;20053;-27
2023/07/29 05:26:35;;;;;;;15.80;7.20;;;16.50;99.90;;;;;;5035831;28;20052;-27
2023/07/29 05:29:00;;;;;;;12.70;6.63;;;16.50;99.90;;;;;;5035086;28;20041;-27
2023/07/29 05:31:27;;;;;;;15.43;6.93;;;16.60;99.90;;;;;;5035168;28;20471;-28
2023/07/29 05:33:53;;;;;;;12.50;6.78;;;16.60;99.90;;;;;;5018739;28;20067;-28
2023/07/29 05:36:19;;;;;;;9.73;6.15;;;16.60;99.90;;;;;;5035629;28;20183;-28
2023/07/29 05:38:44;;;;;;;12.55;6.07;;;16.60;99.90;;;;;;5036205;28;20057;-27
2023/07/29 05:41:10;;;;;;;14.90;6.20;;;16.70;99.90;;;;;;5035565;28;20054;-28
2023/07/29 05:43:36;;;;;;;10.68;6.15;;;16.70;99.90;;;;;;5035847;28;20045;-27
2023/07/29 05:46:02;;;;;;;8.55;5.70;;;16.70;99.90;;;;;;5035888;28;20472;-27
2023/07/29 05:48:28;;;;;;;11.65;5.15;;;16.80;99.90;;;;;;5034614;28;20041;-28
2023/07/29 05:50:54;;;;;;;11.38;6.13;;;16.80;99.90;;;;;;5034434;28;20045;-28
2023/07/29 05:53:19;;;;;;;11.68;5.65;;;16.80;99.90;;;;;;5034452;28;20049;-28
2023/07/29 05:55:45;;;;;;;10.48;5.28;;;16.80;99.90;;;;;;5035218;28;20103;-28
2023/07/29 05:58:11;;;;;;;7.40;3.95;;;16.90;99.90;;;;;;5035541;28;20052;-27
2023/07/29 06:00:36;;;;;;;10.38;4.97;;;16.90;99.90;;;;;;5034365;28;20041;-28
2023/07/29 06:03:02;;;;;;;7.70;5.28;;;16.90;99.90;;;;;;5035308;28;20041;-27
2023/07/29 06:05:28;;;;;;;11.10;5.47;;;17.00;99.90;;;;;;5034962;28;20434;-27
2023/07/29 06:07:53;;;;;;;9.85;4.57;;;17.00;99.90;;;;;;5018462;28;20128;-28
2023/07/29 06:10:19;;;;;;;10.65;5.78;;;17.00;99.90;;;;;;5035105;28;20053;-28
2023/07/29 06:12:46;;;;;;;8.60;5.05;;;17.10;99.90;;;;;;5035573;28;20063;-28
2023/07/29 06:15:12;;;;;;;9.10;4.60;;;17.10;99.90;;;;;;5035186;28;20114;-28
2023/07/29 06:17:38;;;;;;;9.07;5.00;;;17.20;99.90;;;;;;5036022;28;20045;-28
2023/07/29 06:20:05;;;;;;;7.60;4.65;;;17.20;99.90;;;;;;5034841;28;20492;-28
2023/07/29 06:22:31;;;;;;;8.82;4.22;;;17.30;99.90;;;;;;5033837;28;20052;-28
2023/07/29 06:24:57;;;;;;;6.28;4.03;;;17.40;99.90;;;;;;5034742;28;20139;-28
2023/07/29 06:27:24;;;;;;;10.43;5.82;;;17.80;99.90;;;;;;5034266;28;20042;-28
2023/07/29 06:29:50;;;;;;;6.47;4.10;;;18.40;99.90;;;;;;5034816;28;20558;-28
2023/07/29 06:32:16;;;;;;;10.75;5.22;;;18.90;99.90;;;;;;5034253;28;20091;-28
2023/07/29 06:34:41;;;;;;;8.70;4.68;;;19.10;99.90;;;;;;5034681;28;20049;-28
2023/07/29 06:37:07;;;;;;;8.70;3.92;;;19.70;99.90;;;;;;5035804;28;20044;-28
2023/07/29 06:39:33;;;;;;;6.95;3.22;;;19.70;99.90;;;;;;5035043;28;20041;-28
2023/07/29 06:41:58;;;;;;;9.63;4.32;;;19.20;99.90;;;;;;5035232;28;20049;-27
2023/07/29 06:44:24;;;;;;;10.05;3.70;;;19.00;99.90;;;;;;5034716;28;20045;-28
2023/07/29 06:46:50;;;;;;;9.85;4.22;;;18.90;99.90;;;;;;5035738;28;20384;-28
2023/07/29 06:49:16;;;;;;;9.55;4.55;;;18.70;99.90;;;;;;5034849;28;20085;-29
2023/07/29 06:51:41;;;;;;;9.13;4.22;;;18.50;99.90;;;;;;5034590;28;20438;-28
2023/07/29 06:54:07;;;;;;;12.80;3.90;;;18.60;99.90;;;;;;5034464;28;20051;-28
2023/07/29 06:56:33;;;;;;;10.35;3.97;;;18.60;99.90;;;;;;5034379;28;20092;-28
2023/07/29 06:58:58;;;;;;;9.25;3.50;;;18.50;99.90;;;;;;5034404;28;20049;-28
2023/07/29 07:01:24;;;;;;;11.77;5.32;;;18.50;99.90;;;;;;5034339;28;20091;-29
2023/07/29 07:03:50;;;;;;;13.60;4.38;;;18.50;99.90;;;;;;5034607;28;20103;-27
2023/07/29 07:06:15;;;;;;;8.07;3.67;;;18.60;99.90;;;;;;5033947;28;20451;-29
2023/07/29 07:08:41;;;;;;;11.75;5.00;;;18.60;99.90;;;;;;5034338;28;20061;-28
2023/07/29 07:11:07;;;;;;;11.00;4.57;;;18.80;99.90;;;;;;5033857;28;20128;-28
2023/07/29 07:13:33;;;;;;;13.02;4.63;;;18.90;99.90;;;;;;5033829;28;20454;-27
2023/07/29 07:15:59;;;;;;;12.70;4.07;;;18.90;99.90;;;;;;5034026;28;20102;-28
2023/07/29 07:18:24;;;;;;;9.10;3.40;;;18.90;99.90;;;;;;5034287;28;20053;-28
2023/07/29 07:20:51;;;;;;;10.60;4.18;;;18.90;99.90;;;;;;5032247;28;20045;-28
2023/07/29 07:23:17;;;;;;;13.98;3.83;;;18.90;99.90;;;;;;5033965;28;20052;-28
2023/07/29 07:25:43;;;;;;;10.02;3.97;;;18.80;99.90;;;;;;5032994;28;20103;-28
2023/07/29 07:28:09;;;;;;;9.45;3.85;;;18.70;99.90;;;;;;5016433;28;20057;-28
2023/07/29 07:30:39;;;;;;;9.80;4.20;;;18.70;99.90;;;;;;5034188;28;20056;-28
2023/07/29 07:33:05;;;;;;;7.68;3.60;;;18.70;99.90;;;;;;5033652;28;20557;-28
2023/07/29 07:35:30;;;;;;;10.93;4.13;;;18.70;99.90;;;;;;5034369;28;20046;-28
2023/07/29 07:37:56;;;;;;;13.18;3.70;;;18.70;99.90;;;;;;5033799;28;20124;-28
2023/07/29 07:40:22;;;;;;;8.23;3.60;;;18.80;99.90;;;;;;5033774;28;20175;-29
2023/07/29 07:42:47;;;;;;;7.45;3.72;;;18.90;99.90;;;;;;5033801;28;20064;-28
2023/07/29 07:45:13;;;;;;;15.77;3.83;;;18.90;99.90;;;;;;5033547;28;20068;-28
2023/07/29 07:47:39;;;;;;;8.90;3.70;;;19.00;99.90;;;;;;5016613;28;20518;-29
2023/07/29 07:50:05;;;;;;;10.35;3.42;;;19.10;99.90;;;;;;5033718;28;20049;-28
2023/07/29 07:52:30;;;;;;;8.45;3.05;;;19.30;99.90;;;;;;5032513;28;20054;-29
2023/07/29 07:54:56;;;;;;;10.57;3.03;;;19.50;99.90;;;;;;5033607;28;20072;-28
2023/07/29 07:57:22;;;;;;;11.52;3.80;;;19.60;99.90;;;;;;5033003;28;20064;-28
2023/07/29 07:59:48;;;;;;;13.00;3.70;;;20.10;99.90;;;;;;5033566;28;20049;-28
2023/07/29 08:02:14;;;;;;;8.77;2.92;;;20.20;99.90;;;;;;5032603;28;20068;-28
2023/07/29 08:04:40;;;;;;;9.95;3.30;;;20.10;38.50;;;;;;5034081;28;20045;-28
2023/07/29 08:07:05;;;;;;;13.13;3.78;;;20.60;10.20;;;;;;5034329;28;20033;-28
2023/07/29 08:09:31;;;;;;;8.38;2.80;;;20.60;1.00;;;;;;5033486;28;20484;-28
2023/07/29 08:11:57;;;;;;;6.60;2.70;;;20.50;1.00;;;;;;5032788;28;20054;-28
2023/07/29 08:14:23;;;;;;;6.55;2.42;;;20.50;1.00;;;;;;5032302;28;20462;-28
2023/07/29 08:16:48;;;;;;;8.75;2.80;;;20.30;1.00;;;;;;5033403;28;20080;-28
2023/07/29 08:19:14;;;;;;;5.40;2.30;;;20.30;1.00;;;;;;5032754;28;20037;-28
2023/07/29 08:21:40;;;;;;;6.80;2.75;;;20.50;1.00;;;;;;5034167;28;20471;-29
2023/07/29 08:24:07;;;;;;;6.18;2.38;;;20.30;1.00;;;;;;5032219;28;20049;-28
2023/07/29 08:26:33;;;;;;;7.75;2.78;;;20.20;1.00;;;;;;5033331;28;20050;-28
2023/07/29 08:28:58;;;;;;;4.90;2.25;;;20.20;1.00;;;;;;5033528;28;20488;-28
2023/07/29 08:31:24;;;;;;;7.22;2.58;;;20.30;1.00;;;;;;5017183;28;20147;-28
2023/07/29 08:33:50;;;;;;;6.32;2.30;;;20.50;1.00;;;;;;5035914;28;20056;-28
2023/07/29 08:36:16;;;;;;;8.57;2.15;;;20.50;1.00;;;;;;5035928;28;20051;-28
2023/07/29 08:38:41;;;;;;;6.22;1.73;;;21.00;1.00;;;;;;5037033;28;20053;-28
2023/07/29 08:41:14;;;;;;;5.43;2.00;;;21.00;99.90;;;;;;5036945;28;20056;-28
2023/07/29 08:44:04;;;;;;;8.40;2.25;;;21.10;99.90;;;;;;5019485;28;20045;-28
2023/07/29 08:46:30;;;;;;;4.50;1.75;;;21.70;99.90;;;;;;5025789;28;20415;-28
2023/07/29 08:48:56;;;;;;;6.60;1.95;;;21.90;99.90;;;;;;5019988;28;20373;-28
2023/07/29 08:51:23;;;;;;;4.60;2.25;;;22.10;99.90;;;;;;5035940;28;20487;-29
2023/07/29 08:53:50;;;;;;;5.80;1.80;;;21.90;99.90;;;;;;5036758;28;20072;-28
2023/07/29 08:56:16;;;;;;;6.63;1.30;;;21.40;1.00;;;;;;5036708;28;20049;-28
2023/07/29 08:58:42;;;;;;;5.63;1.65;;;21.10;1.00;;;;;;5036577;28;20037;-29
2023/07/29 09:01:08;;;;;;;6.00;2.25;;;20.90;56.80;;;;;;5019482;28;20061;-28
2023/07/29 09:03:34;;;;;;;6.40;2.17;;;20.70;99.90;;;;;;5036620;28;20045;-29
2023/07/29 09:06:02;;;;;;;5.00;1.52;;;20.60;99.90;;;;;;5036831;28;20045;-28
2023/07/29 09:08:28;;;;;;;3.92;1.70;;;20.70;99.90;;;;;;5036207;28;20049;-28
2023/07/29 09:10:55;;;;;;;4.35;1.83;;;20.90;99.90;;;;;;5036469;28;20096;-28
2023/07/29 09:13:21;;;;;;;7.07;2.17;;;21.00;9.80;;;;;;5036249;28;20133;-28
2023/07/29 09:15:47;;;;;;;4.80;1.50;;;21.60;3.30;;;;;;5018936;28;20128;-28
2023/07/29 09:18:17;;;;;;;8.25;1.58;;;22.10;1.00;;;;;;5034996;28;20050;-28
2023/07/29 09:20:43;;;;;;;3.40;1.30;;;22.50;99.90;;;;;;5036878;28;20380;-28
2023/07/29 09:23:10;;;;;;;5.80;1.42;;;22.20;99.90;;;;;;5036528;28;20046;-28
2023/07/29 09:25:36;;;;;;;4.65;1.63;;;21.80;99.90;;;;;;5036171;28;20529;-28
2023/07/29 09:28:11;;;;;;;4.43;1.45;;;21.60;1.00;;;;;;5036615;28;20470;-27
2023/07/29 09:30:42;;;;;;;7.18;1.45;;;21.80;1.00;;;;;;5035494;28;20056;-28
2023/07/29 09:33:09;;;;;;;5.43;1.95;;;22.30;99.90;;;;;;5036055;28;20080;-28
2023/07/29 09:35:36;;;;;;;4.78;1.25;;;22.10;99.90;;;;;;5035935;28;20049;-28
2023/07/29 09:38:03;;;;;;;3.65;0.90;;;22.50;99.90;;;;;;5035957;28;20084;-28
2023/07/29 09:40:40;;;;;;;5.60;1.00;;;23.00;1.00;;;;;;5036192;28;20107;-28
2023/07/29 09:43:07;;;;;;;2.22;0.90;;;22.90;99.90;;;;;;5018178;28;20057;-28
2023/07/29 09:45:37;;;;;;;3.33;1.33;;;22.80;1.00;;;;;;5017624;28;20088;-28
2023/07/29 09:48:09;;;;;;;2.67;1.27;;;22.50;99.90;;;;;;5035475;28;20491;-28
2023/07/29 09:50:35;;;;;;;3.50;1.17;;;22.40;1.00;;;;;;5036442;28;20099;-28
2023/07/29 09:53:02;;;;;;;4.30;0.85;;;22.20;1.00;;;;;;5034515;28;20046;-28
2023/07/29 09:55:29;;;;;;;3.03;1.08;;;22.00;1.00;;;;;;5035559;28;20103;-28
2023/07/29 09:58:03;;;;;;;5.85;1.25;;;22.10;99.90;;;;;;5036399;28;20046;-28
2023/07/29 10:00:30;;;;;;;3.67;1.40;;;22.20;99.90;;;;;;5034926;28;20199;-28
2023/07/29 10:02:58;;;;;;;1.77;1.02;;;22.50;99.90;;;;;;5035241;28;20495;-28
2023/07/29 10:05:27;;;;;;;4.05;0.98;;;22.50;99.90;;;;;;5035416;28;20037;-28
2023/07/29 10:07:54;;;;;;;3.63;0.98;;;22.70;99.90;;;;;;5017933;28;20479;-28
2023/07/29 10:10:23;;;;;;;3.92;1.20;;;22.60;1.00;;;;;;5036149;28;20053;-28
2023/07/29 10:12:50;;;;;;;3.67;1.40;;;22.40;34.20;;;;;;5017809;28;20060;-28
2023/07/29 10:15:15;;;;;;;3.75;1.67;;;22.10;98.40;;;;;;5034208;28;20085;-28
2023/07/29 10:17:41;;;;;;;5.22;1.20;;;21.90;99.90;;;;;;5034250;28;20080;-28
2023/07/29 10:20:09;;;;;;;4.80;1.38;;;22.10;1.00;;;;;;5034829;28;20052;-28
2023/07/29 10:22:47;;;;;;;3.08;1.10;;;22.70;99.90;;;;;;5035098;28;20085;-28
2023/07/29 10:25:18;;;;;;;3.72;0.88;;;23.40;1.00;;;;;;5017935;28;20395;-28
2023/07/29 10:27:49;;;;;;;3.08;1.20;;;23.90;1.00;;;;;;5035072;28;20060;-28
2023/07/29 10:30:15;;;;;;;3.15;1.15;;;23.80;99.90;;;;;;5034999;28;20049;-28
2023/07/29 10:32:45;;;;;;;1.98;0.70;;;23.90;99.90;;;;;;5034914;28;20148;-28
2023/07/29 10:35:14;;;;;;;3.50;1.05;;;24.10;1.00;;;;;;5034771;28;20045;-28
2023/07/29 10:37:41;;;;;;;4.35;1.75;;;24.00;99.90;;;;;;5033690;28;20053;-28
2023/07/29 10:40:09;;;;;;;4.15;1.33;;;23.20;48.50;;;;;;5034751;28;20115;-28
2023/07/29 10:42:35;;;;;;;7.63;1.00;;;23.00;99.90;;;;;;5034682;28;20045;-28
2023/07/29 10:45:16;;;;;;;5.90;1.42;;;22.50;99.90;;;;;;5034266;28;20133;-29
2023/07/29 10:47:42;;;;;;;3.45;1.30;;;22.10;1.00;;;;;;5034657;28;20128;-28
2023/07/29 10:50:18;;;;;;;5.60;1.55;;;21.70;35.40;;;;;;5034658;28;20133;-28
2023/07/29 10:52:47;;;;;;;4.80;1.27;;;21.40;99.90;;;;;;5034380;28;20509;-29
2023/07/29 10:55:30;;;;;;;5.75;1.33;;;21.30;99.90;;;;;;5032300;28;20052;-28
2023/07/29 10:58:22;;;;;;;4.25;1.77;;;21.00;99.90;;;;;;5017053;28;20049;-28
2023/07/29 11:00:49;;;;;;;4.43;1.73;;;20.80;99.90;;;;;;5031807;28;20475;-28
2023/07/29 11:03:15;;;;;;;5.80;1.63;;;20.60;99.90;;;;;;5034379;28;20049;-28
2023/07/29 11:05:50;;;;;;;4.75;1.50;;;20.50;99.90;;;;;;5033119;28;20096;-28
2023/07/29 11:08:30;;;;;;;6.90;1.55;;;20.30;99.90;;;;;;5034900;28;20085;-27
2023/07/29 11:11:06;;;;;;;5.13;1.65;;;20.20;1.00;;;;;;5033600;28;20058;-27
2023/07/29 11:13:34;;;;;;;8.77;2.00;;;18.90;99.90;;;;;;5033238;28;20084;-31
2023/07/29 11:16:01;;;;;;;3.92;1.05;;;17.90;99.90;;;;;;5034080;28;20124;-32
2023/07/29 11:18:33;;;;;;;3.53;1.20;;;17.40;99.90;;;;;;5033438;28;20057;-30
2023/07/29 11:20:59;;;;;;;2.45;0.93;;;17.40;99.90;;;;;;5033995;28;20038;-29
2023/07/29 11:23:43;;;;;;;4.35;1.42;;;17.60;99.90;;;;;;5033736;28;20534;-29
2023/07/29 11:26:09;;;;;;;3.22;1.48;;;17.70;99.90;;;;;;5034586;28;20037;-30
2023/07/29 11:28:40;;;;;;;6.00;2.13;;;18.10;99.90;;;;;;5033866;28;20041;-29
2023/07/29 11:31:05;;;;;;;4.97;2.05;;;18.40;99.90;;;;;;5033919;28;20049;-30
2023/07/29 11:33:32;;;;;;;4.75;1.90;;;18.90;99.90;;;;;;5034143;28;20053;-29
2023/07/29 11:35:58;;;;;;;7.22;1.95;;;19.50;99.90;;;;;;5032618;28;20045;-30
2023/07/29 11:38:23;;;;;;;4.55;1.60;;;19.90;99.90;;;;;;5034305;28;20049;-29
2023/07/29 11:41:02;;;;;;;5.57;2.40;;;19.60;99.90;;;;;;5033803;28;20180;-29
2023/07/29 11:43:28;;;;;;;5.05;2.40;;;19.70;99.90;;;;;;5016110;28;20451;-29
2023/07/29 11:45:54;;;;;;;6.85;1.98;;;19.90;99.90;;;;;;5033664;28;20118;-31
2023/07/29 11:48:33;;;;;;;5.45;2.67;;;20.00;99.90;;;;;;5033009;28;20151;-29
2023/07/29 11:50:59;;;;;;;4.03;1.55;;;20.10;99.90;;;;;;5033735;28;20045;-29
2023/07/29 11:53:30;;;;;;;3.30;1.50;;;20.10;99.90;;;;;;5032506;28;20041;-29
2023/07/29 11:55:56;;;;;;;4.15;2.30;;;20.00;99.90;;;;;;5033146;28;20041;-30
2023/07/29 11:58:21;;;;;;;5.43;1.52;;;20.00;99.90;;;;;;5016455;28;20379;-29
2023/07/29 12:00:48;;;;;;;3.30;1.58;;;20.00;99.90;;;;;;5033586;28;20041;-28
2023/07/29 12:03:16;;;;;;;4.85;1.38;;;19.90;99.90;;;;;;5033227;28;20563;-29
2023/07/29 12:05:42;;;;;;;7.38;1.83;;;20.00;99.90;;;;;;5032838;28;20062;-28
2023/07/29 12:08:09;;;;;;;5.05;1.85;;;19.80;99.90;;;;;;5037044;28;20100;-28
2023/07/29 12:10:35;;;;;;;2.40;1.10;;;19.50;99.90;;;;;;5036095;28;20403;-28
2023/07/29 12:13:03;;;;;;;3.33;1.30;;;19.20;99.90;;;;;;5037525;28;20053;-28
2023/07/29 12:15:29;;;;;;;3.92;1.60;;;18.60;99.90;;;;;;5019419;28;20049;-32
2023/07/29 12:17:59;;;;;;;3.65;1.33;;;18.10;99.90;;;;;;5038019;28;20052;-32
2023/07/29 12:20:25;;;;;;;4.32;1.05;;;18.20;99.90;;;;;;5037431;28;20456;-31
2023/07/29 12:22:55;;;;;;;2.50;1.30;;;18.50;99.90;;;;;;5037381;28;20050;-29
2023/07/29 12:25:22;;;;;;;5.03;2.00;;;18.80;99.90;;;;;;5036909;28;20053;-30
2023/07/29 12:27:48;;;;;;;3.42;1.83;;;19.10;99.90;;;;;;5037252;28;20053;-30
2023/07/29 12:30:14;;;;;;;5.30;1.67;;;19.70;99.90;;;;;;5036472;28;20050;-31
2023/07/29 12:32:47;;;;;;;2.60;1.33;;;20.50;99.90;;;;;;5035716;28;20529;-29
2023/07/29 12:35:12;;;;;;;;;;;20.80;97.50;;;;;;5037481;28;20092;-30
2023/07/29 12:37:42;;;;;;;7.72;1.80;;;20.70;1.00;;;;;;5037036;28;19972;-30